sensor_id;sensor_type;location;lat;lon;timestamp;temperature;humidity
29353;DHT22;16344;50.364;8.944;2022-10-22T00:01:40;16.20;1.00
29353;DHT22;16344;50.364;8.944;2022-10-22T00:04:06;16.20;1.00
29353;DHT22;16344;50.364;8.944;2022-10-22T00:06:32;16.20;1.00
29353;DHT22;16344;50.364;8.944;2022-10-22T00:08:58;16.30;1.00
29353;DHT22;16344;50.364;8.944;2022-10-22T00:11:23;16.20;1.00
29353;DHT22;16344;50.364;8.944;2022-10-22T00:13:49;16.20;1.00
29353;DHT22;16344;50.364;8.944;2022-10-22T00:16:15;16.20;1.00
29353;DHT22;16344;50.364;8.944;2022-10-22T00:18:40;16.20;1.00
29353;DHT22;16344;50.364;8.944;2022-10-22T00:21:07;16.30;1.00
29353;DHT22;16344;50.364;8.944;2022-10-22T00:23:33;16.30;1.00
29353;DHT22;16344;50.364;8.944;2022-10-22T00:25:58;16.30;1.00
29353;DHT22;16344;50.364;8.944;2022-10-22T00:28:24;16.30;1.00
29353;DHT22;16344;50.364;8.944;2022-10-22T00:31:00;16.30;1.00
29353;DHT22;16344;50.364;8.944;2022-10-22T00:33:26;16.40;1.00
29353;DHT22;16344;50.364;8.944;2022-10-22T00:35:52;16.40;1.00
29353;DHT22;16344;50.364;8.944;2022-10-22T00:38:17;16.30;1.00
29353;DHT22;16344;50.364;8.944;2022-10-22T00:40:43;16.30;1.00
29353;DHT22;16344;50.364;8.944;2022-10-22T00:43:11;15.90;1.00
29353;DHT22;16344;50.364;8.944;2022-10-22T00:45:37;15.60;1.00
29353;DHT22;16344;50.364;8.944;2022-10-22T00:48:06;15.40;1.00
29353;DHT22;16344;50.364;8.944;2022-10-22T00:50:38;15.60;1.00
29353;DHT22;16344;50.364;8.944;2022-10-22T00:53:10;15.70;1.00
29353;DHT22;16344;50.364;8.944;2022-10-22T00:55:36;15.80;1.00
29353;DHT22;16344;50.364;8.944;2022-10-22T00:58:03;15.80;1.00
29353;DHT22;16344;50.364;8.944;2022-10-22T01:00:28;15.90;1.00
29353;DHT22;16344;50.364;8.944;2022-10-22T01:02:55;16.00;1.00
29353;DHT22;16344;50.364;8.944;2022-10-22T01:05:21;16.10;1.00
29353;DHT22;16344;50.364;8.944;2022-10-22T01:07:50;16.20;1.00
29353;DHT22;16344;50.364;8.944;2022-10-22T01:16:16;16.10;1.00
29353;DHT22;16344;50.364;8.944;2022-10-22T01:19:08;16.20;1.00
29353;DHT22;16344;50.364;8.944;2022-10-22T01:21:41;16.20;1.00
29353;DHT22;16344;50.364;8.944;2022-10-22T01:24:34;16.30;1.00
29353;DHT22;16344;50.364;8.944;2022-10-22T01:27:10;16.40;1.00
29353;DHT22;16344;50.364;8.944;2022-10-22T01:29:42;16.40;1.00
29353;DHT22;16344;50.364;8.944;2022-10-22T01:32:14;16.50;1.00
29353;DHT22;16344;50.364;8.944;2022-10-22T01:34:43;16.50;1.00
29353;DHT22;16344;50.364;8.944;2022-10-22T01:37:13;16.50;1.00
29353;DHT22;16344;50.364;8.944;2022-10-22T01:39:39;16.50;1.00
29353;DHT22;16344;50.364;8.944;2022-10-22T01:42:06;16.40;1.00
29353;DHT22;16344;50.364;8.944;2022-10-22T01:44:33;16.30;1.00
29353;DHT22;16344;50.364;8.944;2022-10-22T01:47:29;16.40;1.00
29353;DHT22;16344;50.364;8.944;2022-10-22T01:50:03;16.40;1.00
29353;DHT22;16344;50.364;8.944;2022-10-22T01:55:42;16.30;1.00
29353;DHT22;16344;50.364;8.944;2022-10-22T01:58:29;16.20;1.00
29353;DHT22;16344;50.364;8.944;2022-10-22T02:03:43;16.00;1.00
29353;DHT22;16344;50.364;8.944;2022-10-22T02:06:17;15.90;1.00
29353;DHT22;16344;50.364;8.944;2022-10-22T02:08:44;15.90;1.00
29353;DHT22;16344;50.364;8.944;2022-10-22T02:11:11;15.80;1.00
29353;DHT22;16344;50.364;8.944;2022-10-22T02:13:53;15.70;1.00
29353;DHT22;16344;50.364;8.944;2022-10-22T02:16:25;15.80;1.00
29353;DHT22;16344;50.364;8.944;2022-10-22T02:18:53;16.00;1.00
29353;DHT22;16344;50.364;8.944;2022-10-22T02:21:21;15.90;1.00
29353;DHT22;16344;50.364;8.944;2022-10-22T02:23:46;16.00;1.00
29353;DHT22;16344;50.364;8.944;2022-10-22T02:29:10;16.10;1.00
29353;DHT22;16344;50.364;8.944;2022-10-22T02:31:40;16.20;1.00
29353;DHT22;16344;50.364;8.944;2022-10-22T02:34:10;16.20;1.00
29353;DHT22;16344;50.364;8.944;2022-10-22T02:36:39;16.20;1.00
29353;DHT22;16344;50.364;8.944;2022-10-22T02:39:07;16.10;1.00
29353;DHT22;16344;50.364;8.944;2022-10-22T02:41:34;16.10;1.00
29353;DHT22;16344;50.364;8.944;2022-10-22T02:43:59;16.20;1.00
29353;DHT22;16344;50.364;8.944;2022-10-22T02:46:27;16.10;1.00
29353;DHT22;16344;50.364;8.944;2022-10-22T02:48:52;15.90;1.00
29353;DHT22;16344;50.364;8.944;2022-10-22T02:51:18;16.00;1.00
29353;DHT22;16344;50.364;8.944;2022-10-22T02:53:44;15.90;1.00
29353;DHT22;16344;50.364;8.944;2022-10-22T02:56:09;15.90;1.00
29353;DHT22;16344;50.364;8.944;2022-10-22T02:58:35;16.00;1.00
29353;DHT22;16344;50.364;8.944;2022-10-22T03:01:01;15.50;1.00
29353;DHT22;16344;50.364;8.944;2022-10-22T03:03:26;15.20;1.00
29353;DHT22;16344;50.364;8.944;2022-10-22T03:05:52;15.30;1.00
29353;DHT22;16344;50.364;8.944;2022-10-22T03:08:17;15.40;1.00
29353;DHT22;16344;50.364;8.944;2022-10-22T03:10:43;15.40;1.00
29353;DHT22;16344;50.364;8.944;2022-10-22T03:13:08;15.70;1.00
29353;DHT22;16344;50.364;8.944;2022-10-22T03:15:34;15.60;1.00
29353;DHT22;16344;50.364;8.944;2022-10-22T03:18:00;15.70;1.00
29353;DHT22;16344;50.364;8.944;2022-10-22T03:20:25;15.60;1.00
29353;DHT22;16344;50.364;8.944;2022-10-22T03:22:51;15.60;1.00
29353;DHT22;16344;50.364;8.944;2022-10-22T03:25:21;15.70;1.00
29353;DHT22;16344;50.364;8.944;2022-10-22T03:27:49;15.70;1.00
29353;DHT22;16344;50.364;8.944;2022-10-22T03:30:16;15.80;1.00
29353;DHT22;16344;50.364;8.944;2022-10-22T03:32:42;15.90;1.00
29353;DHT22;16344;50.364;8.944;2022-10-22T03:35:08;15.90;1.00
29353;DHT22;16344;50.364;8.944;2022-10-22T03:37:33;15.90;1.00
29353;DHT22;16344;50.364;8.944;2022-10-22T03:40:00;15.80;1.00
29353;DHT22;16344;50.364;8.944;2022-10-22T03:42:26;15.80;1.00
29353;DHT22;16344;50.364;8.944;2022-10-22T03:44:52;15.70;1.00
29353;DHT22;16344;50.364;8.944;2022-10-22T03:47:17;15.70;1.00
29353;DHT22;16344;50.364;8.944;2022-10-22T03:49:43;15.90;1.00
29353;DHT22;16344;50.364;8.944;2022-10-22T03:52:11;15.70;1.00
29353;DHT22;16344;50.364;8.944;2022-10-22T03:54:37;15.70;1.00
29353;DHT22;16344;50.364;8.944;2022-10-22T03:57:04;15.70;1.00
29353;DHT22;16344;50.364;8.944;2022-10-22T03:59:38;15.70;1.00
29353;DHT22;16344;50.364;8.944;2022-10-22T04:02:04;15.70;1.00
29353;DHT22;16344;50.364;8.944;2022-10-22T04:04:30;15.80;1.00
29353;DHT22;16344;50.364;8.944;2022-10-22T04:06:55;15.80;1.00
29353;DHT22;16344;50.364;8.944;2022-10-22T04:09:21;15.80;1.00
29353;DHT22;16344;50.364;8.944;2022-10-22T04:11:47;15.80;1.00
29353;DHT22;16344;50.364;8.944;2022-10-22T04:14:12;15.90;1.00
29353;DHT22;16344;50.364;8.944;2022-10-22T04:16:39;16.00;1.00
29353;DHT22;16344;50.364;8.944;2022-10-22T04:19:05;15.90;1.00
29353;DHT22;16344;50.364;8.944;2022-10-22T04:21:31;16.00;1.00
29353;DHT22;16344;50.364;8.944;2022-10-22T04:23:57;16.00;1.00
29353;DHT22;16344;50.364;8.944;2022-10-22T04:26:22;15.90;1.00
29353;DHT22;16344;50.364;8.944;2022-10-22T04:28:50;15.80;1.00
29353;DHT22;16344;50.364;8.944;2022-10-22T04:31:18;15.70;1.00
29353;DHT22;16344;50.364;8.944;2022-10-22T04:33:44;15.60;1.00
29353;DHT22;16344;50.364;8.944;2022-10-22T04:36:16;15.60;1.00
29353;DHT22;16344;50.364;8.944;2022-10-22T04:38:43;15.60;1.00
29353;DHT22;16344;50.364;8.944;2022-10-22T04:41:10;15.60;1.00
29353;DHT22;16344;50.364;8.944;2022-10-22T04:43:35;15.70;1.00
29353;DHT22;16344;50.364;8.944;2022-10-22T04:46:01;15.70;1.00
29353;DHT22;16344;50.364;8.944;2022-10-22T04:48:26;15.60;1.00
29353;DHT22;16344;50.364;8.944;2022-10-22T04:50:52;15.70;1.00
29353;DHT22;16344;50.364;8.944;2022-10-22T04:53:17;15.70;1.00
29353;DHT22;16344;50.364;8.944;2022-10-22T04:55:43;15.70;1.00
29353;DHT22;16344;50.364;8.944;2022-10-22T04:58:08;15.70;1.00
29353;DHT22;16344;50.364;8.944;2022-10-22T05:00:34;15.70;1.00
29353;DHT22;16344;50.364;8.944;2022-10-22T05:02:59;15.70;1.00
29353;DHT22;16344;50.364;8.944;2022-10-22T05:05:25;15.70;1.00
29353;DHT22;16344;50.364;8.944;2022-10-22T05:07:50;15.70;1.00
29353;DHT22;16344;50.364;8.944;2022-10-22T05:10:16;15.60;1.00
29353;DHT22;16344;50.364;8.944;2022-10-22T05:12:41;15.60;1.00
29353;DHT22;16344;50.364;8.944;2022-10-22T05:15:08;15.60;1.00
29353;DHT22;16344;50.364;8.944;2022-10-22T05:17:37;15.60;1.00
29353;DHT22;16344;50.364;8.944;2022-10-22T05:20:06;15.60;1.00
29353;DHT22;16344;50.364;8.944;2022-10-22T05:22:33;15.60;1.00
29353;DHT22;16344;50.364;8.944;2022-10-22T05:24:59;15.60;1.00
29353;DHT22;16344;50.364;8.944;2022-10-22T05:27:25;15.60;1.00
29353;DHT22;16344;50.364;8.944;2022-10-22T05:29:51;15.60;1.00
29353;DHT22;16344;50.364;8.944;2022-10-22T05:32:16;15.70;1.00
29353;DHT22;16344;50.364;8.944;2022-10-22T05:34:42;15.60;1.00
29353;DHT22;16344;50.364;8.944;2022-10-22T05:37:08;15.50;1.00
29353;DHT22;16344;50.364;8.944;2022-10-22T05:39:33;15.50;1.00
29353;DHT22;16344;50.364;8.944;2022-10-22T05:42:01;15.40;1.00
29353;DHT22;16344;50.364;8.944;2022-10-22T05:44:27;15.40;1.00
29353;DHT22;16344;50.364;8.944;2022-10-22T05:46:53;15.30;1.00
29353;DHT22;16344;50.364;8.944;2022-10-22T05:49:19;15.30;1.00
29353;DHT22;16344;50.364;8.944;2022-10-22T05:51:44;15.30;1.00
29353;DHT22;16344;50.364;8.944;2022-10-22T05:54:16;15.30;1.00
29353;DHT22;16344;50.364;8.944;2022-10-22T05:56:42;15.20;1.00
29353;DHT22;16344;50.364;8.944;2022-10-22T05:59:12;15.30;1.00
29353;DHT22;16344;50.364;8.944;2022-10-22T06:01:38;15.30;1.00
29353;DHT22;16344;50.364;8.944;2022-10-22T06:04:07;15.30;1.00
29353;DHT22;16344;50.364;8.944;2022-10-22T06:06:42;15.30;1.00
29353;DHT22;16344;50.364;8.944;2022-10-22T06:09:37;15.20;1.00
29353;DHT22;16344;50.364;8.944;2022-10-22T06:12:03;15.30;1.00
29353;DHT22;16344;50.364;8.944;2022-10-22T06:14:33;15.30;1.00
29353;DHT22;16344;50.364;8.944;2022-10-22T06:16:59;15.30;1.00
29353;DHT22;16344;50.364;8.944;2022-10-22T06:19:24;15.30;1.00
29353;DHT22;16344;50.364;8.944;2022-10-22T06:21:51;15.20;1.00
29353;DHT22;16344;50.364;8.944;2022-10-22T06:24:17;15.20;1.00
29353;DHT22;16344;50.364;8.944;2022-10-22T06:26:43;15.30;1.00
29353;DHT22;16344;50.364;8.944;2022-10-22T06:29:08;15.30;1.00
29353;DHT22;16344;50.364;8.944;2022-10-22T06:31:34;15.30;1.00
29353;DHT22;16344;50.364;8.944;2022-10-22T06:34:04;15.30;1.00
29353;DHT22;16344;50.364;8.944;2022-10-22T06:36:30;15.20;1.00
29353;DHT22;16344;50.364;8.944;2022-10-22T06:38:56;15.30;1.00
29353;DHT22;16344;50.364;8.944;2022-10-22T06:41:22;15.40;1.00
29353;DHT22;16344;50.364;8.944;2022-10-22T06:43:48;15.10;1.00
29353;DHT22;16344;50.364;8.944;2022-10-22T06:46:18;15.10;1.00
29353;DHT22;16344;50.364;8.944;2022-10-22T06:48:58;15.00;1.00
29353;DHT22;16344;50.364;8.944;2022-10-22T06:51:25;15.00;1.00
29353;DHT22;16344;50.364;8.944;2022-10-22T06:53:52;15.00;1.00
29353;DHT22;16344;50.364;8.944;2022-10-22T06:56:19;15.00;1.00
29353;DHT22;16344;50.364;8.944;2022-10-22T06:58:47;15.20;1.00
29353;DHT22;16344;50.364;8.944;2022-10-22T07:01:14;15.40;1.00
29353;DHT22;16344;50.364;8.944;2022-10-22T07:03:40;15.30;1.00
29353;DHT22;16344;50.364;8.944;2022-10-22T07:06:08;15.40;1.00
29353;DHT22;16344;50.364;8.944;2022-10-22T07:08:35;15.50;1.00
29353;DHT22;16344;50.364;8.944;2022-10-22T07:13:30;15.60;1.00
29353;DHT22;16344;50.364;8.944;2022-10-22T07:15:56;15.80;1.00
29353;DHT22;16344;50.364;8.944;2022-10-22T07:18:21;16.00;1.00
29353;DHT22;16344;50.364;8.944;2022-10-22T07:20:47;16.20;1.00
29353;DHT22;16344;50.364;8.944;2022-10-22T07:23:13;16.40;1.00
29353;DHT22;16344;50.364;8.944;2022-10-22T07:25:40;16.50;1.00
29353;DHT22;16344;50.364;8.944;2022-10-22T07:28:06;16.70;1.00
29353;DHT22;16344;50.364;8.944;2022-10-22T07:30:31;16.90;1.00
29353;DHT22;16344;50.364;8.944;2022-10-22T07:32:57;17.10;1.00
29353;DHT22;16344;50.364;8.944;2022-10-22T07:35:22;17.10;1.00
29353;DHT22;16344;50.364;8.944;2022-10-22T07:37:48;17.30;1.00
29353;DHT22;16344;50.364;8.944;2022-10-22T07:40:13;17.20;1.00
29353;DHT22;16344;50.364;8.944;2022-10-22T07:42:39;17.10;1.00
29353;DHT22;16344;50.364;8.944;2022-10-22T07:45:05;17.20;1.00
29353;DHT22;16344;50.364;8.944;2022-10-22T07:47:30;17.30;1.00
29353;DHT22;16344;50.364;8.944;2022-10-22T07:49:56;17.40;1.00
29353;DHT22;16344;50.364;8.944;2022-10-22T07:52:21;17.50;1.00
29353;DHT22;16344;50.364;8.944;2022-10-22T07:54:47;17.60;1.00
29353;DHT22;16344;50.364;8.944;2022-10-22T07:57:12;17.80;1.00
29353;DHT22;16344;50.364;8.944;2022-10-22T07:59:38;17.60;1.00
29353;DHT22;16344;50.364;8.944;2022-10-22T08:02:03;17.70;1.00
29353;DHT22;16344;50.364;8.944;2022-10-22T08:04:29;17.70;1.00
29353;DHT22;16344;50.364;8.944;2022-10-22T08:06:54;17.70;1.00
29353;DHT22;16344;50.364;8.944;2022-10-22T08:09:20;17.80;1.00
29353;DHT22;16344;50.364;8.944;2022-10-22T08:11:45;17.80;1.00
29353;DHT22;16344;50.364;8.944;2022-10-22T08:14:12;17.70;1.00
29353;DHT22;16344;50.364;8.944;2022-10-22T08:16:38;17.80;1.00
29353;DHT22;16344;50.364;8.944;2022-10-22T08:19:03;17.90;1.00
29353;DHT22;16344;50.364;8.944;2022-10-22T08:21:29;17.90;1.00
29353;DHT22;16344;50.364;8.944;2022-10-22T08:23:54;18.00;1.00
29353;DHT22;16344;50.364;8.944;2022-10-22T08:26:20;18.10;1.00
29353;DHT22;16344;50.364;8.944;2022-10-22T08:28:45;18.10;1.00
29353;DHT22;16344;50.364;8.944;2022-10-22T08:31:11;18.30;1.00
29353;DHT22;16344;50.364;8.944;2022-10-22T08:33:37;18.40;1.00
29353;DHT22;16344;50.364;8.944;2022-10-22T08:36:03;18.40;1.00
29353;DHT22;16344;50.364;8.944;2022-10-22T08:38:29;18.50;1.00
29353;DHT22;16344;50.364;8.944;2022-10-22T08:41:16;18.70;1.00
29353;DHT22;16344;50.364;8.944;2022-10-22T08:44:05;18.80;99.90
29353;DHT22;16344;50.364;8.944;2022-10-22T08:49:29;19.00;99.90
29353;DHT22;16344;50.364;8.944;2022-10-22T08:51:56;19.10;1.00
29353;DHT22;16344;50.364;8.944;2022-10-22T08:54:58;19.20;99.90
29353;DHT22;16344;50.364;8.944;2022-10-22T08:57:42;19.30;99.90
29353;DHT22;16344;50.364;8.944;2022-10-22T09:00:34;19.20;99.90
29353;DHT22;16344;50.364;8.944;2022-10-22T09:05:58;19.30;99.90
29353;DHT22;16344;50.364;8.944;2022-10-22T09:08:25;19.30;99.90
29353;DHT22;16344;50.364;8.944;2022-10-22T09:13:39;19.40;99.90
29353;DHT22;16344;50.364;8.944;2022-10-22T09:16:33;19.50;99.90
29353;DHT22;16344;50.364;8.944;2022-10-22T09:24:48;19.30;99.90
29353;DHT22;16344;50.364;8.944;2022-10-22T09:27:26;19.00;99.90
29353;DHT22;16344;50.364;8.944;2022-10-22T09:29:53;18.90;99.90
29353;DHT22;16344;50.364;8.944;2022-10-22T09:32:18;18.90;99.90
29353;DHT22;16344;50.364;8.944;2022-10-22T09:34:45;19.10;99.90
29353;DHT22;16344;50.364;8.944;2022-10-22T09:37:11;19.00;99.90
29353;DHT22;16344;50.364;8.944;2022-10-22T09:39:44;19.00;99.90
29353;DHT22;16344;50.364;8.944;2022-10-22T09:42:13;19.10;99.90
29353;DHT22;16344;50.364;8.944;2022-10-22T09:44:39;19.10;99.90
29353;DHT22;16344;50.364;8.944;2022-10-22T09:47:50;19.20;99.90
29353;DHT22;16344;50.364;8.944;2022-10-22T09:50:18;19.40;99.90
29353;DHT22;16344;50.364;8.944;2022-10-22T09:52:45;19.50;99.90
29353;DHT22;16344;50.364;8.944;2022-10-22T09:55:18;19.40;99.90
29353;DHT22;16344;50.364;8.944;2022-10-22T09:57:54;19.40;99.90
29353;DHT22;16344;50.364;8.944;2022-10-22T10:00:21;19.40;99.90
29353;DHT22;16344;50.364;8.944;2022-10-22T10:02:53;19.60;99.90
29353;DHT22;16344;50.364;8.944;2022-10-22T10:05:26;19.80;99.90
29353;DHT22;16344;50.364;8.944;2022-10-22T10:07:51;19.90;99.90
29353;DHT22;16344;50.364;8.944;2022-10-22T10:10:37;19.80;99.90
29353;DHT22;16344;50.364;8.944;2022-10-22T10:16:23;19.60;99.90
29353;DHT22;16344;50.364;8.944;2022-10-22T10:19:04;19.50;99.90
29353;DHT22;16344;50.364;8.944;2022-10-22T10:24:40;19.30;99.90
29353;DHT22;16344;50.364;8.944;2022-10-22T10:28:08;19.30;99.90
29353;DHT22;16344;50.364;8.944;2022-10-22T10:30:24;19.30;99.90
29353;DHT22;16344;50.364;8.944;2022-10-22T10:36:23;19.30;99.90
29353;DHT22;16344;50.364;8.944;2022-10-22T10:38:54;19.40;99.90
29353;DHT22;16344;50.364;8.944;2022-10-22T10:41:45;19.50;99.90
29353;DHT22;16344;50.364;8.944;2022-10-22T10:49:34;19.70;99.90
29353;DHT22;16344;50.364;8.944;2022-10-22T10:52:21;19.80;99.90
29353;DHT22;16344;50.364;8.944;2022-10-22T10:55:21;19.60;99.90
29353;DHT22;16344;50.364;8.944;2022-10-22T11:00:31;19.60;99.90
29353;DHT22;16344;50.364;8.944;2022-10-22T11:05:58;19.40;99.90
29353;DHT22;16344;50.364;8.944;2022-10-22T11:08:39;19.40;99.90
29353;DHT22;16344;50.364;8.944;2022-10-22T11:11:16;19.50;99.90
29353;DHT22;16344;50.364;8.944;2022-10-22T11:13:55;19.60;99.90
29353;DHT22;16344;50.364;8.944;2022-10-22T11:16:46;19.70;99.90
29353;DHT22;16344;50.364;8.944;2022-10-22T11:19:26;19.50;99.90
29353;DHT22;16344;50.364;8.944;2022-10-22T11:24:49;19.30;99.90
29353;DHT22;16344;50.364;8.944;2022-10-22T11:29:53;19.40;99.90
29353;DHT22;16344;50.364;8.944;2022-10-22T11:32:21;19.40;99.90
29353;DHT22;16344;50.364;8.944;2022-10-22T11:34:50;19.50;99.90
29353;DHT22;16344;50.364;8.944;2022-10-22T11:37:19;19.40;99.90
29353;DHT22;16344;50.364;8.944;2022-10-22T11:40:04;19.50;99.90
29353;DHT22;16344;50.364;8.944;2022-10-22T11:42:49;19.60;99.90
29353;DHT22;16344;50.364;8.944;2022-10-22T11:51:42;19.90;99.90
29353;DHT22;16344;50.364;8.944;2022-10-22T11:53:37;19.90;99.90
29353;DHT22;16344;50.364;8.944;2022-10-22T11:58:32;19.90;99.90
29353;DHT22;16344;50.364;8.944;2022-10-22T12:06:25;20.00;99.90
29353;DHT22;16344;50.364;8.944;2022-10-22T12:08:56;20.00;99.90
29353;DHT22;16344;50.364;8.944;2022-10-22T12:11:44;19.90;99.90
29353;DHT22;16344;50.364;8.944;2022-10-22T12:16:46;19.60;99.90
29353;DHT22;16344;50.364;8.944;2022-10-22T12:21:52;19.60;99.90
29353;DHT22;16344;50.364;8.944;2022-10-22T12:24:19;19.70;99.90
29353;DHT22;16344;50.364;8.944;2022-10-22T12:26:46;19.50;99.90
29353;DHT22;16344;50.364;8.944;2022-10-22T12:29:15;19.50;99.90
29353;DHT22;16344;50.364;8.944;2022-10-22T12:31:43;19.30;99.90
29353;DHT22;16344;50.364;8.944;2022-10-22T12:34:15;19.50;99.90
29353;DHT22;16344;50.364;8.944;2022-10-22T12:36:41;19.50;99.90
29353;DHT22;16344;50.364;8.944;2022-10-22T12:39:24;19.40;99.90
29353;DHT22;16344;50.364;8.944;2022-10-22T12:41:51;19.50;99.90
29353;DHT22;16344;50.364;8.944;2022-10-22T12:44:17;19.60;99.90
29353;DHT22;16344;50.364;8.944;2022-10-22T12:46:45;19.60;99.90
29353;DHT22;16344;50.364;8.944;2022-10-22T12:49:18;19.70;99.90
29353;DHT22;16344;50.364;8.944;2022-10-22T12:51:44;19.80;99.90
29353;DHT22;16344;50.364;8.944;2022-10-22T12:54:23;19.80;99.90
29353;DHT22;16344;50.364;8.944;2022-10-22T12:56:49;19.90;99.90
29353;DHT22;16344;50.364;8.944;2022-10-22T12:59:20;20.00;99.90
29353;DHT22;16344;50.364;8.944;2022-10-22T13:01:47;19.90;99.90
29353;DHT22;16344;50.364;8.944;2022-10-22T13:04:20;19.90;99.90
29353;DHT22;16344;50.364;8.944;2022-10-22T13:06:47;19.90;99.90
29353;DHT22;16344;50.364;8.944;2022-10-22T13:09:20;19.90;99.90
29353;DHT22;16344;50.364;8.944;2022-10-22T13:11:56;20.10;99.90
29353;DHT22;16344;50.364;8.944;2022-10-22T13:14:28;20.20;99.90
29353;DHT22;16344;50.364;8.944;2022-10-22T13:22:35;20.30;99.90
29353;DHT22;16344;50.364;8.944;2022-10-22T13:30:51;20.00;99.90
29353;DHT22;16344;50.364;8.944;2022-10-22T13:33:35;20.00;99.90
29353;DHT22;16344;50.364;8.944;2022-10-22T13:36:03;19.80;99.90
29353;DHT22;16344;50.364;8.944;2022-10-22T13:38:29;19.60;99.90
29353;DHT22;16344;50.364;8.944;2022-10-22T13:40:55;19.40;99.90
29353;DHT22;16344;50.364;8.944;2022-10-22T13:43:21;19.20;99.90
29353;DHT22;16344;50.364;8.944;2022-10-22T13:45:58;19.10;99.90
29353;DHT22;16344;50.364;8.944;2022-10-22T13:48:25;19.00;99.90
29353;DHT22;16344;50.364;8.944;2022-10-22T13:50:52;19.00;99.90
29353;DHT22;16344;50.364;8.944;2022-10-22T13:53:21;18.90;99.90
29353;DHT22;16344;50.364;8.944;2022-10-22T13:55:48;18.80;99.90
29353;DHT22;16344;50.364;8.944;2022-10-22T13:58:16;18.70;99.90
29353;DHT22;16344;50.364;8.944;2022-10-22T14:00:53;18.70;1.00
29353;DHT22;16344;50.364;8.944;2022-10-22T14:03:22;18.60;1.00
29353;DHT22;16344;50.364;8.944;2022-10-22T14:05:49;18.60;1.00
29353;DHT22;16344;50.364;8.944;2022-10-22T14:08:18;18.50;1.00
29353;DHT22;16344;50.364;8.944;2022-10-22T14:10:44;18.60;1.00
29353;DHT22;16344;50.364;8.944;2022-10-22T14:13:11;18.50;1.00
29353;DHT22;16344;50.364;8.944;2022-10-22T14:15:37;18.40;1.00
29353;DHT22;16344;50.364;8.944;2022-10-22T14:18:04;18.40;1.00
29353;DHT22;16344;50.364;8.944;2022-10-22T14:20:33;18.40;1.00
29353;DHT22;16344;50.364;8.944;2022-10-22T14:23:14;18.60;1.00
29353;DHT22;16344;50.364;8.944;2022-10-22T14:25:41;18.40;1.00
29353;DHT22;16344;50.364;8.944;2022-10-22T14:28:09;18.50;99.90
29353;DHT22;16344;50.364;8.944;2022-10-22T14:30:35;18.60;1.00
29353;DHT22;16344;50.364;8.944;2022-10-22T14:33:00;18.70;99.90
29353;DHT22;16344;50.364;8.944;2022-10-22T14:35:26;18.70;99.90
29353;DHT22;16344;50.364;8.944;2022-10-22T14:37:52;18.80;99.90
29353;DHT22;16344;50.364;8.944;2022-10-22T14:40:19;18.90;99.90
29353;DHT22;16344;50.364;8.944;2022-10-22T14:42:46;18.70;99.90
29353;DHT22;16344;50.364;8.944;2022-10-22T14:45:24;18.70;99.90
29353;DHT22;16344;50.364;8.944;2022-10-22T14:47:50;18.90;99.90
29353;DHT22;16344;50.364;8.944;2022-10-22T14:50:17;18.80;99.90
29353;DHT22;16344;50.364;8.944;2022-10-22T14:52:43;18.80;99.90
29353;DHT22;16344;50.364;8.944;2022-10-22T14:55:10;18.80;99.90
29353;DHT22;16344;50.364;8.944;2022-10-22T14:57:36;18.70;99.90
29353;DHT22;16344;50.364;8.944;2022-10-22T15:00:08;18.60;99.90
29353;DHT22;16344;50.364;8.944;2022-10-22T15:02:34;18.60;99.90
29353;DHT22;16344;50.364;8.944;2022-10-22T15:04:59;18.70;99.90
29353;DHT22;16344;50.364;8.944;2022-10-22T15:07:25;18.80;99.90
29353;DHT22;16344;50.364;8.944;2022-10-22T15:09:52;18.80;99.90
29353;DHT22;16344;50.364;8.944;2022-10-22T15:12:17;18.90;99.90
29353;DHT22;16344;50.364;8.944;2022-10-22T15:14:47;18.80;99.90
29353;DHT22;16344;50.364;8.944;2022-10-22T15:17:14;18.80;99.90
29353;DHT22;16344;50.364;8.944;2022-10-22T15:19:39;18.90;99.90
29353;DHT22;16344;50.364;8.944;2022-10-22T15:22:05;18.80;99.90
29353;DHT22;16344;50.364;8.944;2022-10-22T15:24:31;18.80;99.90
29353;DHT22;16344;50.364;8.944;2022-10-22T15:26:57;18.90;99.90
29353;DHT22;16344;50.364;8.944;2022-10-22T15:29:22;18.90;99.90
29353;DHT22;16344;50.364;8.944;2022-10-22T15:31:53;19.00;99.90
29353;DHT22;16344;50.364;8.944;2022-10-22T15:34:33;19.10;1.00
29353;DHT22;16344;50.364;8.944;2022-10-22T15:37:00;19.10;1.00
29353;DHT22;16344;50.364;8.944;2022-10-22T15:39:26;19.10;1.00
29353;DHT22;16344;50.364;8.944;2022-10-22T15:41:53;19.00;99.90
29353;DHT22;16344;50.364;8.944;2022-10-22T15:44:20;19.10;1.00
29353;DHT22;16344;50.364;8.944;2022-10-22T15:46:47;19.00;1.00
29353;DHT22;16344;50.364;8.944;2022-10-22T15:49:12;19.00;1.00
29353;DHT22;16344;50.364;8.944;2022-10-22T15:51:38;18.90;1.00
29353;DHT22;16344;50.364;8.944;2022-10-22T15:54:04;18.90;1.00
29353;DHT22;16344;50.364;8.944;2022-10-22T15:56:30;18.90;1.00
29353;DHT22;16344;50.364;8.944;2022-10-22T15:58:58;18.90;1.00
29353;DHT22;16344;50.364;8.944;2022-10-22T16:01:25;18.90;1.00
29353;DHT22;16344;50.364;8.944;2022-10-22T16:03:52;19.00;1.00
29353;DHT22;16344;50.364;8.944;2022-10-22T16:06:28;18.80;1.00
29353;DHT22;16344;50.364;8.944;2022-10-22T16:08:56;18.80;1.00
29353;DHT22;16344;50.364;8.944;2022-10-22T16:11:22;18.80;1.00
29353;DHT22;16344;50.364;8.944;2022-10-22T16:13:52;18.80;1.00
29353;DHT22;16344;50.364;8.944;2022-10-22T16:16:17;18.80;1.00
29353;DHT22;16344;50.364;8.944;2022-10-22T16:18:43;18.80;1.00
29353;DHT22;16344;50.364;8.944;2022-10-22T16:21:11;18.70;1.00
29353;DHT22;16344;50.364;8.944;2022-10-22T16:23:38;18.70;1.00
29353;DHT22;16344;50.364;8.944;2022-10-22T16:26:03;18.70;1.00
29353;DHT22;16344;50.364;8.944;2022-10-22T16:28:29;18.60;1.00
29353;DHT22;16344;50.364;8.944;2022-10-22T16:30:54;18.60;1.00
29353;DHT22;16344;50.364;8.944;2022-10-22T16:33:20;18.50;1.00
29353;DHT22;16344;50.364;8.944;2022-10-22T16:35:47;18.60;1.00
29353;DHT22;16344;50.364;8.944;2022-10-22T16:38:12;18.50;1.00
29353;DHT22;16344;50.364;8.944;2022-10-22T16:40:38;18.60;1.00
29353;DHT22;16344;50.364;8.944;2022-10-22T16:43:04;18.50;1.00
29353;DHT22;16344;50.364;8.944;2022-10-22T16:45:30;18.40;1.00
29353;DHT22;16344;50.364;8.944;2022-10-22T16:47:55;18.40;1.00
29353;DHT22;16344;50.364;8.944;2022-10-22T16:50:21;18.40;1.00
29353;DHT22;16344;50.364;8.944;2022-10-22T16:52:46;18.30;99.90
29353;DHT22;16344;50.364;8.944;2022-10-22T16:55:12;18.40;1.00
29353;DHT22;16344;50.364;8.944;2022-10-22T16:57:37;18.30;1.00
29353;DHT22;16344;50.364;8.944;2022-10-22T17:00:04;18.40;1.00
29353;DHT22;16344;50.364;8.944;2022-10-22T17:02:30;18.40;1.00
29353;DHT22;16344;50.364;8.944;2022-10-22T17:04:55;18.40;1.00
29353;DHT22;16344;50.364;8.944;2022-10-22T17:07:21;18.30;1.00
29353;DHT22;16344;50.364;8.944;2022-10-22T17:09:46;18.30;1.00
29353;DHT22;16344;50.364;8.944;2022-10-22T17:12:12;18.30;99.90
29353;DHT22;16344;50.364;8.944;2022-10-22T17:14:38;18.20;99.90
29353;DHT22;16344;50.364;8.944;2022-10-22T17:17:03;18.10;99.90
29353;DHT22;16344;50.364;8.944;2022-10-22T17:19:29;18.20;1.00